Time;durP1;ratioP1;P1;durP2;ratioP2;P2;SDS_P1;SDS_P2;PMS_P1;PMS_P2;Temp;Humidity;BMP_temperature;BMP_pressure;BME280_temperature;BME280_humidity;BME280_pressure;Samples;Min_cycle;Max_cycle;Signal;HPM_P1;HPM_P2
2022/09/24 00:00:28;;;;;;;7.95;3.47;;;;;;;9.27;100.00;98722.00;5175838;27;20489;-77
2022/09/24 00:02:55;;;;;;;5.50;3.90;;;;;;;9.42;100.00;98749.94;5174089;27;20048;-76
2022/09/24 00:05:22;;;;;;;5.20;3.75;;;;;;;9.23;100.00;98720.66;5174764;27;20038;-77
2022/09/24 00:07:48;;;;;;;7.07;3.03;;;;;;;9.31;100.00;98723.31;5174497;27;20054;-76
2022/09/24 00:10:15;;;;;;;6.95;3.90;;;;;;;9.46;100.00;98737.69;5155046;27;20055;-77
2022/09/24 00:12:41;;;;;;;8.05;3.53;;;;;;;9.49;100.00;98740.03;5154407;27;20065;-76
2022/09/24 00:15:10;;;;;;;4.40;3.08;;;;;;;9.44;100.00;98725.34;5173568;27;20046;-76
2022/09/24 00:17:36;;;;;;;6.40;4.18;;;;;;;9.62;100.00;98708.66;5180281;27;20060;-76
2022/09/24 00:20:03;;;;;;;6.47;3.72;;;;;;;9.87;100.00;98736.31;5172867;27;20042;-77
2022/09/24 00:22:32;;;;;;;5.68;3.13;;;;;;;9.89;100.00;98732.41;5168244;27;20051;-76
2022/09/24 00:27:42;;;;;;;14.40;5.07;;;;;;;9.81;100.00;98731.66;5175830;27;20057;-76
2022/09/24 00:30:11;;;;;;;11.43;5.95;;;;;;;9.89;100.00;98728.81;5174608;27;20080;-77
2022/09/24 00:32:38;;;;;;;7.18;5.28;;;;;;;9.72;100.00;98693.75;5174712;27;20042;-77
2022/09/24 00:35:05;;;;;;;8.30;4.57;;;;;;;9.81;100.00;98710.78;5160472;27;20053;-76
2022/09/24 00:37:32;;;;;;;8.45;4.30;;;;;;;9.65;100.00;98700.13;5169106;27;20042;-77
2022/09/24 00:39:58;;;;;;;7.85;4.25;;;;;;;9.47;100.00;98701.41;5174893;27;20050;-77
2022/09/24 00:42:24;;;;;;;5.93;4.10;;;;;;;9.40;100.00;98692.34;5174424;27;20512;-76
2022/09/24 00:44:54;;;;;;;8.10;4.00;;;;;;;9.71;100.00;98721.94;5175082;27;20038;-76
2022/09/24 00:47:29;;;;;;;7.13;3.92;;;;;;;9.59;100.00;98707.19;5175198;27;20050;-76
2022/09/24 00:50:06;;;;;;;5.25;3.88;;;;;;;9.59;100.00;98700.91;5169471;27;20061;-77
2022/09/24 00:52:34;;;;;;;6.22;3.85;;;;;;;9.60;100.00;98687.13;5165940;27;20564;-76
2022/09/24 00:55:01;;;;;;;9.68;4.22;;;;;;;9.63;100.00;98692.19;5172924;27;20046;-76
2022/09/24 00:57:28;;;;;;;10.00;4.32;;;;;;;9.73;100.00;98708.19;5175371;27;20552;-76
2022/09/24 00:59:56;;;;;;;8.30;4.40;;;;;;;9.77;100.00;98704.06;5174841;27;20050;-76
2022/09/24 01:02:23;;;;;;;9.48;4.80;;;;;;;9.88;100.00;98714.41;5174400;27;20042;-77
2022/09/24 01:04:51;;;;;;;7.82;5.05;;;;;;;9.70;100.00;98668.69;5177475;27;20094;-77
2022/09/24 01:07:17;;;;;;;8.68;4.35;;;;;;;9.68;100.00;98670.75;5174704;27;20057;-77
2022/09/24 01:09:44;;;;;;;7.65;4.10;;;;;;;9.61;100.00;98647.28;5172680;27;20382;-76
2022/09/24 01:12:17;;;;;;;4.90;3.60;;;;;;;9.71;100.00;98683.09;5165371;27;20054;-77
2022/09/24 01:14:59;;;;;;;9.18;3.75;;;;;;;9.51;100.00;98653.00;5171799;27;20038;-76
2022/09/24 01:17:33;;;;;;;4.82;3.72;;;;;;;9.57;100.00;98668.53;5163603;27;20470;-76
2022/09/24 01:20:30;;;;;;;10.63;3.90;;;;;;;9.54;100.00;98656.19;5174226;27;20480;-76
2022/09/24 01:23:22;;;;;;;8.60;4.13;;;;;;;9.63;100.00;98669.66;5173739;27;20054;-77
2022/09/24 01:26:02;;;;;;;6.28;3.85;;;;;;;9.53;100.00;98643.66;5174306;27;20070;-77
2022/09/24 01:28:39;;;;;;;7.78;4.18;;;;;;;9.63;100.00;98670.47;5173804;27;20065;-76
2022/09/24 01:31:14;;;;;;;6.13;3.88;;;;;;;9.65;100.00;98652.16;5174091;27;20046;-76
2022/09/24 01:33:44;;;;;;;7.43;3.78;;;;;;;9.72;100.00;98663.91;5173571;27;20046;-76
2022/09/24 01:36:13;;;;;;;5.72;3.78;;;;;;;9.62;100.00;98666.09;5160882;27;20042;-77
2022/09/24 01:38:43;;;;;;;5.28;3.60;;;;;;;9.45;100.00;98638.31;5178616;27;20078;-76
2022/09/24 01:41:10;;;;;;;;;;;;;;;9.54;100.00;98658.91;5166921;27;20099;-76
2022/09/24 01:43:38;;;;;;;4.72;3.00;;;;;;;9.64;100.00;98658.59;5173236;27;19918;-76
2022/09/24 01:46:07;;;;;;;7.18;3.78;;;;;;;9.64;100.00;98639.59;5171921;27;20463;-76
2022/09/24 01:48:36;;;;;;;4.93;3.88;;;;;;;9.70;100.00;98648.84;5174092;27;20058;-76
2022/09/24 01:51:08;;;;;;;7.17;3.90;;;;;;;9.49;100.00;98620.66;5173701;27;20046;-76
2022/09/24 01:53:42;;;;;;;6.28;4.30;;;;;;;9.47;100.00;98620.00;5171835;27;21735;-77
2022/09/24 01:56:15;;;;;;;6.28;4.20;;;;;;;9.62;100.00;98646.25;5173488;27;20093;-77
2022/09/24 01:58:48;;;;;;;7.93;3.70;;;;;;;9.49;100.00;98622.53;5173741;27;20111;-77
2022/09/24 02:01:22;;;;;;;7.00;3.60;;;;;;;9.52;100.00;98625.69;5178922;27;20074;-77
2022/09/24 02:03:55;;;;;;;5.22;3.67;;;;;;;9.52;100.00;98633.00;5172076;27;20557;-77
2022/09/24 02:06:29;;;;;;;6.80;3.97;;;;;;;9.57;100.00;98642.25;5162148;27;20042;-76
2022/09/24 02:08:56;;;;;;;7.47;4.32;;;;;;;9.38;100.00;98632.00;5173533;27;20054;-77
2022/09/24 02:11:24;;;;;;;5.22;3.63;;;;;;;9.52;100.00;98646.56;5169653;27;20038;-77
2022/09/24 02:13:59;;;;;;;8.25;4.20;;;;;;;9.47;100.00;98638.13;5170796;27;20129;-76
2022/09/24 02:16:30;;;;;;;6.15;3.85;;;;;;;9.48;100.00;98637.13;5175308;27;20477;-77
2022/09/24 02:19:01;;;;;;;6.35;3.90;;;;;;;9.50;100.00;98635.91;5182364;27;20046;-77
2022/09/24 02:21:30;;;;;;;10.38;4.15;;;;;;;9.26;100.00;98601.81;5177510;27;20369;-77
2022/09/24 02:24:01;;;;;;;7.65;4.05;;;;;;;9.25;100.00;98610.13;5170623;27;20049;-77
2022/09/24 02:26:28;;;;;;;8.32;4.75;;;;;;;9.41;100.00;98647.91;5171718;27;20047;-77
2022/09/24 02:28:55;;;;;;;9.60;5.68;;;;;;;9.21;100.00;98623.22;5173005;27;20376;-76
2022/09/24 02:31:27;;;;;;;9.18;5.10;;;;;;;9.07;100.00;98603.22;5167445;27;20044;-77
2022/09/24 02:36:43;;;;;;;9.90;5.00;;;;;;;8.97;100.00;98600.84;5167479;27;20041;-77
2022/09/24 02:39:10;;;;;;;8.57;4.75;;;;;;;9.11;100.00;98623.53;5178072;27;20045;-76
2022/09/24 02:41:37;;;;;;;8.32;5.07;;;;;;;9.16;100.00;98634.63;5176064;27;20557;-76
2022/09/24 02:44:03;;;;;;;7.13;4.07;;;;;;;9.10;100.00;98626.44;5165119;27;20507;-76
2022/09/24 02:46:30;;;;;;;15.55;4.95;;;;;;;9.14;100.00;98636.72;5175470;27;20042;-76
2022/09/24 02:48:58;;;;;;;5.43;4.25;;;;;;;9.26;100.00;98636.22;5168273;27;20046;-77
2022/09/24 02:51:24;;;;;;;5.88;4.30;;;;;;;9.29;100.00;98625.84;5173745;27;20053;-76
2022/09/24 02:53:51;;;;;;;5.43;3.53;;;;;;;8.99;100.00;98587.91;5166037;27;20400;-76
2022/09/24 02:56:18;;;;;;;7.72;3.92;;;;;;;9.02;100.00;98592.97;5179968;27;20428;-77
2022/09/24 02:58:44;;;;;;;8.10;4.05;;;;;;;8.92;100.00;98578.03;5175396;27;20038;-76
2022/09/24 03:01:11;;;;;;;6.03;4.50;;;;;;;9.08;100.00;98623.91;5173674;27;20054;-76
2022/09/24 03:03:37;;;;;;;5.50;3.83;;;;;;;9.01;100.00;98622.97;5156094;27;20057;-76
2022/09/24 03:06:05;;;;;;;7.75;3.92;;;;;;;8.95;100.00;98602.03;5178666;27;20045;-77
2022/09/24 03:08:34;;;;;;;5.53;3.92;;;;;;;9.27;100.00;98640.63;5169740;27;20038;-77
2022/09/24 03:11:00;;;;;;;4.57;3.30;;;;;;;9.16;100.00;98615.66;5171757;27;20044;-76
2022/09/24 03:13:27;;;;;;;6.32;3.72;;;;;;;9.10;100.00;98608.28;5175123;27;20057;-76
2022/09/24 03:15:53;;;;;;;5.18;4.00;;;;;;;9.14;100.00;98603.34;5174843;27;20053;-77
2022/09/24 03:18:20;;;;;;;3.65;3.30;;;;;;;9.27;100.00;98617.03;5170243;27;20047;-77
2022/09/24 03:20:54;;;;;;;5.07;4.03;;;;;;;9.15;100.00;98596.88;5174128;27;20250;-77
2022/09/24 03:23:22;;;;;;;23.02;5.10;;;;;;;9.13;100.00;98593.50;5176415;27;20049;-76
2022/09/24 03:25:49;;;;;;;8.50;4.28;;;;;;;9.12;100.00;98595.41;5180459;27;20058;-76
2022/09/24 03:28:15;;;;;;;4.13;3.15;;;;;;;9.12;100.00;98594.53;5155134;27;20050;-77
2022/09/24 03:30:59;;;;;;;6.95;4.13;;;;;;;9.26;100.00;98612.66;5178651;27;20126;-76
2022/09/24 03:33:26;;;;;;;7.82;3.85;;;;;;;9.12;100.00;98600.81;5170367;27;20097;-76
2022/09/24 03:35:56;;;;;;;6.60;3.85;;;;;;;9.23;100.00;98613.03;5166301;27;20057;-77
2022/09/24 03:38:24;;;;;;;5.53;3.50;;;;;;;9.11;100.00;98591.00;5166705;27;20466;-77
2022/09/24 03:40:51;;;;;;;13.95;4.00;;;;;;;9.23;100.00;98590.47;5188927;27;20038;-76
2022/09/24 03:43:17;;;;;;;4.63;3.30;;;;;;;9.27;100.00;98579.06;5185364;27;20501;-77
2022/09/24 03:45:44;;;;;;;5.20;3.45;;;;;;;9.17;100.00;98592.09;5187425;27;20072;-76
2022/09/24 03:48:11;;;;;;;5.38;3.30;;;;;;;9.23;100.00;98582.34;5172406;27;20046;-76
2022/09/24 03:50:38;;;;;;;5.18;3.90;;;;;;;9.21;100.00;98577.97;5169262;27;20053;-76
2022/09/24 03:53:04;;;;;;;6.72;4.10;;;;;;;9.21;100.00;98583.41;5174255;27;20823;-76
2022/09/24 03:55:32;;;;;;;6.57;4.15;;;;;;;9.23;100.00;98576.91;5175282;27;20046;-77
2022/09/24 03:57:59;;;;;;;6.20;3.47;;;;;;;9.25;100.00;98574.88;5173041;27;20050;-77
2022/09/24 04:00:26;;;;;;;5.45;3.78;;;;;;;9.12;100.00;98571.00;5154828;27;20497;-76
2022/09/24 04:02:52;;;;;;;4.68;3.45;;;;;;;9.24;100.00;98586.75;5164230;27;20046;-76
2022/09/24 04:05:19;;;;;;;6.28;3.97;;;;;;;9.24;100.00;98587.59;5175857;27;20081;-77
2022/09/24 04:07:46;;;;;;;6.55;3.70;;;;;;;9.16;100.00;98583.13;5170837;27;20054;-77
2022/09/24 04:10:12;;;;;;;9.77;4.22;;;;;;;9.29;100.00;98587.00;5176023;27;20060;-77
2022/09/24 04:12:42;;;;;;;10.35;4.35;;;;;;;9.24;100.00;98594.88;5169672;27;20057;-77
2022/09/24 04:15:09;;;;;;;5.78;4.20;;;;;;;9.01;100.00;98564.16;5174221;27;20485;-76
2022/09/24 04:17:36;;;;;;;5.75;4.18;;;;;;;9.10;100.00;98561.34;5175022;27;20405;-76
2022/09/24 04:20:02;;;;;;;7.07;4.35;;;;;;;9.25;100.00;98574.88;5175984;27;20054;-76
2022/09/24 04:22:29;;;;;;;4.57;3.97;;;;;;;9.30;100.00;98589.53;5174916;27;20412;-76
2022/09/24 04:24:56;;;;;;;7.35;4.15;;;;;;;9.10;100.00;98556.75;5173973;27;20038;-76
2022/09/24 04:27:23;;;;;;;5.25;3.95;;;;;;;9.08;100.00;98539.84;5161630;27;20486;-76
2022/09/24 04:29:53;;;;;;;5.18;3.72;;;;;;;9.08;100.00;98571.53;5154723;27;20061;-76
2022/09/24 04:32:19;;;;;;;7.00;4.07;;;;;;;8.94;100.00;98547.00;5174820;27;20465;-76
2022/09/24 04:34:45;;;;;;;9.40;4.22;;;;;;;9.03;100.00;98544.97;5174866;27;20397;-76
2022/09/24 04:37:12;;;;;;;11.05;4.32;;;;;;;9.14;100.00;98562.66;5175314;27;20042;-76
2022/09/24 04:39:38;;;;;;;8.73;4.72;;;;;;;8.98;100.00;98540.13;5180266;27;20049;-76
2022/09/24 04:42:05;;;;;;;7.72;4.30;;;;;;;8.84;100.00;98557.28;5167631;27;20038;-76
2022/09/24 04:44:32;;;;;;;8.18;4.97;;;;;;;9.03;100.00;98582.94;5160365;27;20059;-76
2022/09/24 04:47:01;;;;;;;5.43;3.92;;;;;;;9.10;100.00;98575.75;5161287;27;20046;-76
2022/09/24 04:49:28;;;;;;;5.38;4.13;;;;;;;9.12;100.00;98583.69;5172847;27;20042;-76
2022/09/24 04:51:57;;;;;;;5.82;4.45;;;;;;;8.95;100.00;98548.66;5173049;27;20089;-76
2022/09/24 04:54:23;;;;;;;8.20;4.65;;;;;;;9.03;100.00;98544.97;5173637;27;20605;-75
2022/09/24 04:56:50;;;;;;;6.97;4.68;;;;;;;9.09;100.00;98571.34;5169786;27;20053;-76
2022/09/24 04:59:17;;;;;;;5.85;3.85;;;;;;;9.00;100.00;98553.50;5164463;27;20042;-76
2022/09/24 05:01:43;;;;;;;6.07;4.20;;;;;;;8.90;100.00;98553.81;5165927;27;20042;-76
2022/09/24 05:04:11;;;;;;;7.40;4.97;;;;;;;9.08;100.00;98557.97;5173728;27;20046;-76
2022/09/24 05:06:38;;;;;;;5.80;4.45;;;;;;;9.03;100.00;98562.13;5174153;27;20397;-76
2022/09/24 05:09:04;;;;;;;6.30;4.03;;;;;;;9.07;100.00;98570.69;5174342;27;20046;-76
2022/09/24 05:11:31;;;;;;;5.50;4.22;;;;;;;9.16;100.00;98574.16;5165164;27;20046;-76
2022/09/24 05:13:57;;;;;;;5.90;3.95;;;;;;;9.03;100.00;98561.25;5168621;27;20051;-80
2022/09/24 05:16:24;;;;;;;6.47;4.32;;;;;;;9.03;100.00;98574.81;5167980;27;20390;-77
2022/09/24 05:18:50;;;;;;;4.70;3.75;;;;;;;8.95;100.00;98554.06;5176842;27;20046;-77
2022/09/24 05:21:18;;;;;;;4.78;3.95;;;;;;;9.00;100.00;98573.34;5169399;27;20043;-77
2022/09/24 05:23:44;;;;;;;5.15;3.70;;;;;;;8.84;100.00;98549.16;5152015;27;20050;-76
2022/09/24 05:28:55;;;;;;;9.25;4.25;;;;;;;8.81;100.00;98544.09;5162709;27;20065;-76
2022/09/24 05:31:22;;;;;;;6.50;4.25;;;;;;;9.01;100.00;98575.00;5170329;27;20042;-76
2022/09/24 05:33:48;;;;;;;4.97;4.18;;;;;;;8.85;100.00;98543.53;5171288;27;20050;-76
2022/09/24 05:36:15;;;;;;;5.72;4.47;;;;;;;9.15;100.00;98581.44;5172721;27;20038;-76
2022/09/24 05:38:43;;;;;;;5.30;4.60;;;;;;;8.94;100.00;98551.56;5174323;27;20056;-76
2022/09/24 05:41:09;;;;;;;6.30;4.88;;;;;;;9.06;100.00;98565.47;5173862;27;20062;-76
2022/09/24 05:43:36;;;;;;;8.73;4.38;;;;;;;9.16;100.00;98580.41;5173387;27;20038;-76
2022/09/24 05:46:03;;;;;;;7.20;4.53;;;;;;;8.99;100.00;98563.50;5172187;27;20125;-76
2022/09/24 05:48:29;;;;;;;11.48;5.38;;;;;;;9.02;100.00;98568.56;5167865;27;20084;-76
2022/09/24 05:50:56;;;;;;;7.20;4.57;;;;;;;9.28;100.00;98598.91;5171056;27;20043;-76
2022/09/24 05:53:23;;;;;;;5.60;3.72;;;;;;;9.24;100.00;98584.88;5166982;27;20140;-76
2022/09/24 05:55:50;;;;;;;8.77;4.10;;;;;;;9.08;100.00;98569.69;5157996;27;20047;-76
2022/09/24 05:58:18;;;;;;;5.18;4.00;;;;;;;9.28;100.00;98602.44;5178466;27;20401;-76
2022/09/24 06:00:45;;;;;;;6.93;4.45;;;;;;;9.16;100.00;98574.16;5178557;27;20053;-76
2022/09/24 06:03:14;;;;;;;6.07;4.38;;;;;;;9.23;100.00;98572.38;5175078;27;20106;-76
2022/09/24 06:05:44;;;;;;;5.70;4.53;;;;;;;9.53;100.00;98600.25;5174125;27;20054;-76
2022/09/24 06:08:14;;;;;;;8.05;3.67;;;;;;;9.57;100.00;98593.41;5169390;27;20050;-76
2022/09/24 06:10:40;;;;;;;4.53;3.53;;;;;;;9.40;100.00;98567.53;5157650;27;20058;-76
2022/09/24 06:13:10;;;;;;;7.38;4.07;;;;;;;9.55;100.00;98578.34;5170036;27;20047;-76
2022/09/24 06:15:37;;;;;;;7.68;3.53;;;;;;;9.67;100.00;98590.34;5172610;27;20043;-76
2022/09/24 06:18:04;;;;;;;5.13;3.75;;;;;;;9.72;100.00;98587.88;5170570;27;20050;-76
2022/09/24 06:20:30;;;;;;;5.30;3.83;;;;;;;9.92;100.00;98598.09;5166088;27;20050;-76
2022/09/24 06:22:57;;;;;;;5.55;4.15;;;;;;;10.15;100.00;98611.50;5152422;27;20489;-76
2022/09/24 06:25:24;;;;;;;8.70;4.68;;;;;;;10.08;100.00;98586.13;5152720;27;20076;-76
2022/09/24 06:27:59;;;;;;;6.85;4.35;;;;;;;10.19;100.00;98598.34;5165397;27;20046;-76
2022/09/24 06:30:27;;;;;;;8.02;5.20;;;;;;;10.13;100.00;98574.69;5173092;27;20086;-76
2022/09/24 06:32:54;;;;;;;7.93;5.65;;;;;;;10.19;100.00;98580.19;5153416;27;20058;-76
2022/09/24 06:35:21;;;;;;;6.10;4.10;;;;;;;10.07;100.00;98579.03;5152617;27;20054;-76
2022/09/24 06:37:48;;;;;;;6.25;4.28;;;;;;;10.21;100.00;98602.56;5156546;27;20049;-76
2022/09/24 16:32:17;;;;;;;15.73;11.77;;;;;;;14.34;100.00;98550.88;5022668;28;20174;-75
2022/09/24 16:34:43;;;;;;;15.73;12.10;;;;;;;14.38;100.00;98544.97;5022355;28;20060;-75
2022/09/24 16:37:10;;;;;;;15.85;11.40;;;;;;;14.41;100.00;98542.63;5015126;28;20053;-75
2022/09/24 16:39:37;;;;;;;19.38;11.98;;;;;;;14.41;100.00;98541.81;5055816;27;20047;-75
2022/09/24 16:42:03;;;;;;;18.90;11.60;;;;;;;14.42;100.00;98524.31;5119562;27;20058;-75
2022/09/24 16:44:30;;;;;;;18.33;11.70;;;;;;;14.49;100.00;98539.59;5018266;28;20054;-75
2022/09/24 16:46:56;;;;;;;18.85;12.27;;;;;;;14.40;100.00;98526.47;5021943;28;20054;-75
2022/09/24 16:49:24;;;;;;;16.23;11.40;;;;;;;14.33;100.00;98523.78;5022263;28;20440;-75
2022/09/24 16:51:51;;;;;;;16.02;12.20;;;;;;;14.39;100.00;98522.91;5021334;28;20052;-75
2022/09/24 16:54:18;;;;;;;16.42;13.60;;;;;;;14.22;100.00;98522.63;5021042;28;20504;-75
2022/09/24 16:56:45;;;;;;;16.83;12.60;;;;;;;14.34;100.00;98534.47;5020340;28;20132;-75
2022/09/24 16:59:11;;;;;;;20.55;13.02;;;;;;;14.30;100.00;98537.88;5056595;27;20051;-75
2022/09/24 17:01:38;;;;;;;16.88;12.68;;;;;;;14.21;100.00;98539.25;5061023;27;20065;-75
2022/09/24 17:04:06;;;;;;;17.90;14.32;;;;;;;14.20;100.00;98540.31;5021273;28;20133;-75
2022/09/24 17:06:34;;;;;;;16.90;12.77;;;;;;;13.96;100.00;98512.75;5013581;28;20200;-75
2022/09/24 17:11:45;;;;;;;18.00;13.30;;;;;;;13.86;100.00;98515.16;5021750;28;20052;-75
2022/09/24 17:14:12;;;;;;;21.63;12.77;;;;;;;13.83;100.00;98515.59;5012784;28;20060;-75
2022/09/24 17:16:39;;;;;;;19.13;13.85;;;;;;;13.69;100.00;98509.41;5020018;28;20050;-75
2022/09/24 17:19:06;;;;;;;17.80;13.50;;;;;;;13.85;100.00;98532.59;5021846;28;20049;-75
2022/09/24 17:21:34;;;;;;;19.15;14.13;;;;;;;13.79;100.00;98548.00;5021095;28;20454;-75
2022/09/24 17:24:01;;;;;;;19.40;13.75;;;;;;;13.63;100.00;98522.88;5020728;28;20053;-75
2022/09/24 17:26:28;;;;;;;18.20;14.73;;;;;;;13.66;100.00;98529.78;5021690;28;20057;-75
2022/09/24 17:28:55;;;;;;;19.77;14.88;;;;;;;13.69;100.00;98550.38;5024980;27;20455;-75
2022/09/24 17:31:23;;;;;;;27.02;14.80;;;;;;;13.52;100.00;98518.13;5125146;27;20050;-75
2022/09/24 17:33:55;;;;;;;23.60;15.20;;;;;;;13.59;100.00;98545.38;5079013;27;20057;-75
2022/09/24 17:36:22;;;;;;;20.65;15.32;;;;;;;13.51;100.00;98535.56;5001348;28;20058;-75
2022/09/24 17:38:50;;;;;;;23.05;15.82;;;;;;;13.48;100.00;98543.34;5018649;28;20058;-75
2022/09/24 17:41:17;;;;;;;23.55;15.82;;;;;;;13.43;100.00;98542.13;5021186;28;20484;-75
2022/09/24 17:43:44;;;;;;;21.60;15.60;;;;;;;13.38;100.00;98541.94;5007060;28;20050;-75
2022/09/24 17:46:13;;;;;;;22.27;17.00;;;;;;;13.42;100.00;98559.53;5007642;28;20057;-75
2022/09/24 17:48:42;;;;;;;21.65;16.63;;;;;;;13.42;100.00;98566.91;5047217;28;20054;-75
2022/09/24 17:51:11;;;;;;;23.15;17.58;;;;;;;13.30;100.00;98544.88;4987732;28;20064;-75
2022/09/24 17:53:38;;;;;;;21.48;16.75;;;;;;;13.23;100.00;98538.59;4995597;28;20049;-75
2022/09/24 17:56:08;;;;;;;25.33;17.75;;;;;;;13.27;100.00;98537.13;5008013;28;20062;-74
2022/09/24 17:58:37;;;;;;;25.10;18.17;;;;;;;13.26;100.00;98554.56;5003016;28;20057;-75
2022/09/24 18:01:05;;;;;;;25.80;18.23;;;;;;;13.28;100.00;98558.75;4996979;28;20046;-75
2022/09/24 18:03:31;;;;;;;28.65;18.90;;;;;;;13.32;100.00;98556.41;4993704;28;20085;-75
2022/09/24 18:06:00;;;;;;;30.65;20.90;;;;;;;13.28;100.00;98560.66;5004315;28;20046;-75
2022/09/24 18:08:27;;;;;;;22.70;17.55;;;;;;;13.34;100.00;98575.31;4998564;28;20082;-75
2022/09/24 18:11:00;;;;;;;24.00;17.23;;;;;;;13.37;100.00;98572.16;5004313;28;20417;-75
2022/09/24 18:13:29;;;;;;;23.27;16.85;;;;;;;13.37;100.00;98577.63;5007543;28;20068;-75
2022/09/24 18:15:55;;;;;;;25.33;17.48;;;;;;;13.33;100.00;98569.00;5004911;28;20081;-75
2022/09/24 18:18:21;;;;;;;23.40;16.55;;;;;;;13.29;100.00;98565.03;5007677;28;20058;-74
2022/09/24 18:20:48;;;;;;;24.50;17.20;;;;;;;13.37;100.00;98569.44;5006985;28;20061;-75
2022/09/24 18:23:15;;;;;;;21.40;16.90;;;;;;;13.27;100.00;98557.06;4998119;28;20061;-75
2022/09/24 18:25:41;;;;;;;23.17;16.33;;;;;;;13.21;100.00;98562.56;5007877;28;20050;-75
2022/09/24 18:28:08;;;;;;;25.17;17.05;;;;;;;13.31;100.00;98573.00;5005366;28;20068;-75
2022/09/24 18:30:36;;;;;;;23.65;15.32;;;;;;;13.14;100.00;98551.66;5034425;28;20067;-75
2022/09/24 18:33:02;;;;;;;24.27;15.52;;;;;;;13.06;100.00;98555.47;5009127;28;20065;-74
2022/09/24 18:35:28;;;;;;;22.17;16.92;;;;;;;13.09;100.00;98560.50;5006975;28;20297;-75
2022/09/24 18:37:55;;;;;;;21.65;15.75;;;;;;;13.25;100.00;98583.75;5007073;28;20057;-75
2022/09/24 18:40:22;;;;;;;20.48;15.95;;;;;;;13.36;100.00;98592.34;5007657;28;20042;-75
2022/09/24 18:42:49;;;;;;;21.58;16.50;;;;;;;13.35;100.00;98596.13;5004591;28;20413;-75
2022/09/24 18:45:16;;;;;;;22.88;17.02;;;;;;;13.12;100.00;98575.59;5006380;28;20054;-75
2022/09/24 18:47:44;;;;;;;23.90;17.30;;;;;;;13.18;100.00;98588.38;5042230;28;20051;-75
2022/09/24 18:50:11;;;;;;;23.45;16.48;;;;;;;13.06;100.00;98573.75;5070530;28;20059;-75
2022/09/24 18:52:37;;;;;;;20.08;16.05;;;;;;;13.14;100.00;98592.59;5109786;28;20071;-75
2022/09/24 18:55:04;;;;;;;24.10;15.32;;;;;;;13.13;100.00;98582.75;5044884;28;20047;-75
2022/09/24 18:57:31;;;;;;;25.05;17.63;;;;;;;13.12;100.00;98572.88;5074124;27;20557;-75
2022/09/24 18:59:57;;;;;;;22.48;16.75;;;;;;;13.17;100.00;98581.28;4991303;28;20232;-75
2022/09/24 19:02:25;;;;;;;22.02;16.10;;;;;;;13.16;100.00;98576.00;4986903;28;20058;-75
2022/09/24 19:04:53;;;;;;;23.27;16.38;;;;;;;13.25;100.00;98599.28;4994774;28;20057;-75
2022/09/24 19:07:19;;;;;;;23.13;16.73;;;;;;;13.23;100.00;98599.50;5006400;28;20054;-75
2022/09/24 19:09:46;;;;;;;22.85;16.60;;;;;;;13.13;100.00;98579.16;5003804;28;20085;-75
2022/09/24 19:12:12;;;;;;;25.45;17.02;;;;;;;13.11;100.00;98568.47;5004245;28;20053;-75
2022/09/24 19:14:38;;;;;;;22.17;17.00;;;;;;;13.11;100.00;98571.19;5045406;28;20417;-75
2022/09/24 19:17:05;;;;;;;22.27;16.50;;;;;;;13.01;100.00;98562.66;5028739;28;20059;-75
2022/09/24 19:19:32;;;;;;;24.65;17.40;;;;;;;13.10;100.00;98584.00;5065902;28;20053;-75
2022/09/24 19:22:00;;;;;;;27.05;17.80;;;;;;;13.04;100.00;98581.31;5103795;28;20260;-75
2022/09/24 19:24:26;;;;;;;22.80;16.17;;;;;;;13.00;100.00;98574.63;5084705;28;20272;-75
2022/09/24 19:26:53;;;;;;;22.05;16.13;;;;;;;13.10;100.00;98589.47;5001777;28;20057;-75
2022/09/24 19:29:19;;;;;;;28.65;17.75;;;;;;;13.13;100.00;98595.53;5004298;28;20057;-75
2022/09/24 19:31:47;;;;;;;25.63;16.42;;;;;;;13.00;100.00;98564.53;5006211;28;20420;-75
2022/09/24 19:34:14;;;;;;;20.70;16.10;;;;;;;13.06;100.00;98588.22;4992333;28;20383;-75
2022/09/24 19:36:41;;;;;;;23.27;16.23;;;;;;;12.88;100.00;98571.69;5039238;28;20147;-75
2022/09/24 19:39:09;;;;;;;47.17;24.98;;;;;;;12.85;100.00;98570.22;5065642;28;20130;-75
2022/09/24 19:41:36;;;;;;;26.52;17.45;;;;;;;12.94;100.00;98595.41;5109928;28;20569;-75
2022/09/24 19:44:02;;;;;;;37.85;21.33;;;;;;;12.87;100.00;98589.97;5108303;28;20535;-75
2022/09/24 19:46:30;;;;;;;36.50;20.88;;;;;;;12.90;100.00;98595.00;5109217;28;20059;-75
2022/09/24 19:48:56;;;;;;;25.20;16.48;;;;;;;12.72;100.00;98570.25;5028093;28;20054;-75
2022/09/24 19:51:25;;;;;;;26.70;18.17;;;;;;;12.73;100.00;98580.97;4998955;28;20054;-75
2022/09/24 19:53:54;;;;;;;23.92;16.80;;;;;;;12.71;100.00;98569.44;5004779;28;20993;-75
2022/09/24 19:56:24;;;;;;;21.25;15.63;;;;;;;12.71;100.00;98571.34;5001208;28;20046;-75
2022/09/24 19:58:53;;;;;;;24.63;15.95;;;;;;;12.71;100.00;98568.59;5006606;28;20077;-75
2022/09/24 20:01:20;;;;;;;20.67;15.77;;;;;;;12.69;100.00;98573.41;4999483;28;20050;-75
2022/09/24 20:03:47;;;;;;;21.42;16.35;;;;;;;12.70;100.00;98567.75;4994800;28;20070;-75
2022/09/24 20:06:15;;;;;;;19.00;14.93;;;;;;;12.72;100.00;98571.13;5042938;28;20050;-75
2022/09/24 20:08:42;;;;;;;21.85;15.15;;;;;;;12.84;100.00;98590.41;5005017;28;20061;-75
2022/09/24 20:11:13;;;;;;;22.05;14.20;;;;;;;12.75;100.00;98573.41;5002260;28;20452;-75
2022/09/24 20:13:45;;;;;;;22.13;16.00;;;;;;;12.83;100.00;98583.25;4997519;28;20042;-75
2022/09/24 20:16:14;;;;;;;27.35;17.27;;;;;;;12.78;100.00;98585.81;5005248;28;20096;-75
2022/09/24 20:18:41;;;;;;;19.40;13.95;;;;;;;12.65;100.00;98577.66;4991325;28;20378;-75
2022/09/24 20:21:11;;;;;;;21.80;14.90;;;;;;;12.64;100.00;98573.22;4985740;28;20058;-75
2022/09/24 20:23:38;;;;;;;25.40;16.80;;;;;;;12.67;100.00;98573.63;4985522;28;20123;-75
2022/09/24 20:28:50;;;;;;;23.75;17.15;;;;;;;12.67;100.00;98561.91;4984847;28;20762;-75
2022/09/24 20:31:19;;;;;;;23.70;17.73;;;;;;;12.64;100.00;98567.78;4998316;28;20058;-75
2022/09/24 20:33:47;;;;;;;26.45;18.70;;;;;;;12.61;100.00;98562.75;5093357;28;20437;-75
2022/09/24 20:36:14;;;;;;;21.98;17.42;;;;;;;12.75;100.00;98580.75;5059080;28;20061;-75
2022/09/24 20:38:41;;;;;;;23.45;17.60;;;;;;;12.78;100.00;98595.84;5005221;28;20050;-75
2022/09/24 20:41:09;;;;;;;22.83;17.67;;;;;;;12.62;100.00;98573.44;5005423;28;20498;-75
2022/09/24 20:43:36;;;;;;;25.92;18.33;;;;;;;12.67;100.00;98576.38;5004862;28;20050;-75
2022/09/24 20:46:08;;;;;;;24.58;15.93;;;;;;;12.55;100.00;98578.91;4997039;28;20045;-75
2022/09/24 20:48:35;;;;;;;22.55;14.90;;;;;;;12.66;100.00;98584.75;5000208;28;20054;-75
2022/09/24 20:51:07;;;;;;;22.63;17.80;;;;;;;12.62;100.00;98584.34;5004049;28;20054;-75
2022/09/24 20:53:34;;;;;;;23.50;16.38;;;;;;;12.73;100.00;98596.50;5003496;28;20054;-75
2022/09/24 20:56:01;;;;;;;21.73;15.85;;;;;;;12.62;100.00;98586.25;5017297;28;20436;-75
2022/09/24 20:58:27;;;;;;;24.15;16.67;;;;;;;12.77;100.00;98611.38;5055851;28;20076;-75
2022/09/24 21:00:54;;;;;;;28.45;16.00;;;;;;;12.65;100.00;98577.66;5004776;28;20072;-75
2022/09/24 21:03:22;;;;;;;22.77;16.55;;;;;;;12.63;100.00;98577.84;4991383;28;20112;-75
2022/09/24 21:05:49;;;;;;;21.30;17.27;;;;;;;12.57;100.00;98576.00;4998610;28;20515;-75
2022/09/24 21:08:16;;;;;;;24.15;17.30;;;;;;;12.74;100.00;98611.81;5000207;28;20057;-75
2022/09/24 21:10:42;;;;;;;24.33;18.45;;;;;;;12.75;100.00;98608.03;5002609;28;20078;-75
2022/09/24 21:13:09;;;;;;;22.95;16.98;;;;;;;12.68;100.00;98597.13;5004067;28;20093;-75
2022/09/24 21:15:36;;;;;;;23.35;16.95;;;;;;;12.65;100.00;98588.56;5004790;28;20046;-75
2022/09/24 21:18:06;;;;;;;26.10;18.08;;;;;;;12.65;100.00;98597.56;5004876;28;20046;-75
2022/09/24 21:20:36;;;;;;;24.02;16.63;;;;;;;12.72;100.00;98609.31;4996264;28;20050;-75
2022/09/24 21:23:03;;;;;;;26.00;17.90;;;;;;;12.62;100.00;98595.25;4998797;28;20053;-75
2022/09/24 21:25:33;;;;;;;25.85;18.67;;;;;;;12.62;100.00;98600.72;5002721;28;20060;-75
2022/09/24 21:28:03;;;;;;;38.58;23.33;;;;;;;12.64;100.00;98604.06;4999937;28;20145;-75
2022/09/24 21:30:30;;;;;;;35.65;21.15;;;;;;;12.52;100.00;98595.69;5008632;28;20057;-75